createdAt,value
2018-11-04T00:00:20.123Z,63.85
2018-11-04T00:00:56.828Z,63.66
2018-11-04T00:01:31.255Z,64.02
2018-11-04T00:02:06.004Z,63.98
2018-11-04T00:02:40.432Z,64.20
2018-11-04T00:03:14.919Z,63.86
2018-11-04T00:03:49.467Z,63.96
2018-11-04T00:04:24.445Z,63.95
2018-11-04T00:04:59.152Z,64.19
2018-11-04T00:05:33.492Z,64.28
2018-11-04T00:06:08.099Z,63.83
2018-11-04T00:06:42.488Z,64.18
2018-11-04T00:07:16.950Z,64.02
2018-11-04T00:07:52.129Z,64.01
2018-11-04T00:08:26.676Z,63.82
2018-11-04T00:09:01.048Z,63.75
2018-11-04T00:09:35.398Z,63.74
2018-11-04T00:10:11.240Z,64.05
2018-11-04T00:10:45.612Z,63.98
2018-11-04T00:11:19.956Z,63.86
2018-11-04T00:11:55.113Z,63.70
2018-11-04T00:12:29.542Z,64.17
2018-11-04T00:13:04.335Z,64.06
2018-11-04T00:13:38.971Z,64.08
2018-11-04T00:14:13.471Z,64.15
2018-11-04T00:14:47.861Z,64.23
2018-11-04T00:15:22.176Z,63.93
2018-11-04T00:15:56.703Z,64.14
2018-11-04T00:16:31.316Z,64.45
2018-11-04T00:17:06.477Z,64.19
2018-11-04T00:17:41.288Z,64.01
2018-11-04T00:18:15.996Z,64.14
2018-11-04T00:18:50.374Z,64.27
2018-11-04T00:19:24.925Z,64.12
2018-11-04T00:19:59.318Z,64.16
2018-11-04T00:20:33.668Z,64.05
2018-11-04T00:21:08.261Z,64.14
2018-11-04T00:21:42.672Z,64.35
2018-11-04T00:22:17.103Z,63.75
2018-11-04T00:22:51.936Z,63.77
2018-11-04T00:23:26.356Z,63.88
2018-11-04T00:24:00.699Z,63.76
2018-11-04T00:24:35.224Z,64.00
2018-11-04T00:25:12.096Z,63.93
2018-11-04T00:25:46.585Z,63.75
2018-11-04T00:26:21.284Z,64.03
2018-11-04T00:26:55.790Z,63.79
2018-11-04T00:27:30.264Z,64.01
2018-11-04T00:28:04.634Z,63.99
2018-11-04T00:28:39.075Z,64.02
2018-11-04T00:29:13.436Z,64.36
2018-11-04T00:29:47.842Z,64.20
2018-11-04T00:30:22.335Z,64.04
2018-11-04T00:30:56.839Z,63.80
2018-11-04T00:31:31.251Z,63.79
2018-11-04T00:32:05.781Z,63.25
2018-11-04T00:32:40.637Z,63.43
2018-11-04T00:33:15.020Z,63.41
2018-11-04T00:33:49.430Z,63.55
2018-11-04T00:34:23.798Z,63.84
2018-11-04T00:34:58.148Z,63.66
2018-11-04T00:35:32.489Z,63.87
2018-11-04T00:36:07.084Z,64.17
2018-11-04T00:36:41.605Z,63.91
2018-11-04T00:37:16.020Z,63.76
2018-11-04T00:37:50.629Z,64.08
2018-11-04T00:38:24.945Z,63.75
2018-11-04T00:38:59.315Z,63.68
2018-11-04T00:39:33.687Z,63.56
2018-11-04T00:40:09.368Z,63.84
2018-11-04T00:40:43.801Z,63.68
2018-11-04T00:41:18.136Z,63.46
2018-11-04T00:41:52.957Z,63.51
2018-11-04T00:42:27.378Z,63.67
2018-11-04T00:43:01.914Z,63.52
2018-11-04T00:43:36.255Z,63.93
2018-11-04T00:44:10.859Z,63.72
2018-11-04T00:44:45.263Z,63.81
2018-11-04T00:45:19.671Z,63.45
2018-11-04T00:45:54.176Z,63.64
2018-11-04T00:46:28.533Z,63.52
2018-11-04T00:47:04.168Z,63.56
2018-11-04T00:47:39.795Z,63.67
2018-11-04T00:48:14.192Z,63.63
2018-11-04T00:48:48.711Z,63.59
2018-11-04T00:49:23.199Z,63.74
2018-11-04T00:49:57.555Z,63.70
2018-11-04T00:50:31.888Z,63.74
2018-11-04T00:51:06.549Z,63.58
2018-11-04T00:51:40.964Z,63.77
2018-11-04T00:52:15.412Z,63.89
2018-11-04T00:52:49.766Z,63.71
2018-11-04T00:53:24.070Z,63.81
2018-11-04T00:53:58.424Z,63.65
2018-11-04T00:54:32.992Z,64.03
2018-11-04T00:55:07.933Z,63.81
2018-11-04T00:55:48.812Z,64.24
2018-11-04T00:56:23.141Z,64.05
2018-11-04T00:56:57.510Z,63.43
2018-11-04T00:57:31.882Z,63.23
2018-11-04T00:58:06.461Z,63.13
2018-11-04T00:58:40.868Z,63.58
2018-11-04T00:59:15.252Z,63.29
2018-11-04T00:59:49.651Z,63.55
2018-11-04T01:00:24.141Z,63.78
2018-11-04T01:00:58.534Z,63.59
2018-11-04T01:01:32.912Z,63.48
2018-11-04T01:02:07.468Z,63.71
2018-11-04T01:02:42.529Z,63.87
2018-11-04T01:03:17.285Z,63.94
2018-11-04T01:03:51.661Z,63.92
2018-11-04T01:04:26.032Z,63.49
2018-11-04T01:05:00.470Z,63.54
2018-11-04T01:05:34.844Z,63.50
2018-11-04T01:06:09.502Z,63.63
2018-11-04T01:06:43.855Z,63.90
2018-11-04T01:07:18.559Z,64.15
2018-11-04T01:07:52.930Z,63.90
2018-11-04T01:08:27.319Z,63.75
2018-11-04T01:09:01.779Z,63.57
2018-11-04T01:09:36.375Z,63.89
2018-11-04T01:10:12.489Z,63.82
2018-11-04T01:10:46.896Z,63.76
2018-11-04T01:11:21.334Z,63.74
2018-11-04T01:11:55.693Z,63.87
2018-11-04T01:12:30.246Z,63.92
2018-11-04T01:13:04.634Z,63.98
2018-11-04T01:13:39.507Z,63.84
2018-11-04T01:14:13.893Z,63.89
2018-11-04T01:14:48.252Z,64.07
2018-11-04T01:15:22.579Z,63.91
2018-11-04T01:15:56.931Z,64.17
2018-11-04T01:16:31.412Z,64.14
2018-11-04T01:17:06.683Z,63.90
2018-11-04T01:17:42.215Z,63.93
2018-11-04T01:18:16.616Z,64.07
2018-11-04T01:18:50.947Z,63.95
2018-11-04T01:19:25.297Z,63.87
2018-11-04T01:19:59.680Z,64.03
2018-11-04T01:20:34.025Z,64.03
2018-11-04T01:21:08.993Z,64.03
2018-11-04T01:21:43.901Z,63.98
2018-11-04T01:22:18.232Z,64.05
2018-11-04T01:22:52.585Z,64.05
2018-11-04T01:23:27.128Z,64.09
2018-11-04T01:24:04.796Z,64.36
2018-11-04T01:24:39.473Z,64.16
2018-11-04T01:25:14.073Z,64.59
2018-11-04T01:25:48.472Z,64.05
2018-11-04T01:26:22.800Z,63.88
2018-11-04T01:26:57.520Z,64.14
2018-11-04T01:27:32.228Z,64.15
2018-11-04T01:28:07.099Z,64.06
2018-11-04T01:28:41.501Z,63.99
2018-11-04T01:29:15.927Z,64.08
2018-11-04T01:29:50.429Z,64.00
2018-11-04T01:30:24.851Z,64.13
2018-11-04T01:30:59.365Z,64.50
2018-11-04T01:31:39.916Z,63.89
2018-11-04T01:32:14.863Z,63.64
2018-11-04T01:32:49.191Z,63.66
2018-11-04T01:33:23.584Z,64.09
2018-11-04T01:33:57.981Z,63.77
2018-11-04T01:34:32.316Z,63.62
2018-11-04T01:35:07.116Z,63.84
2018-11-04T01:35:41.576Z,63.86
2018-11-04T01:36:16.024Z,63.47
2018-11-04T01:36:50.737Z,63.70
2018-11-04T01:37:25.043Z,63.58
2018-11-04T01:37:59.575Z,63.63
2018-11-04T01:38:33.897Z,63.45
2018-11-04T01:39:09.352Z,63.46
2018-11-04T01:39:43.704Z,63.14
2018-11-04T01:40:18.058Z,63.42
2018-11-04T01:40:52.445Z,63.42
2018-11-04T01:41:27.012Z,63.31
2018-11-04T01:42:01.426Z,63.51
2018-11-04T01:42:35.922Z,63.62
2018-11-04T01:43:10.424Z,63.73
2018-11-04T01:43:45.025Z,63.52
2018-11-04T01:44:19.348Z,63.39
2018-11-04T01:44:53.712Z,63.36
2018-11-04T01:45:28.024Z,63.42
2018-11-04T01:46:02.372Z,62.82
2018-11-04T01:46:36.689Z,63.04
2018-11-04T01:47:11.137Z,63.41
2018-11-04T01:47:45.600Z,63.63
2018-11-04T01:48:19.945Z,63.41
2018-11-04T01:48:54.268Z,63.23
2018-11-04T01:49:28.636Z,63.26
2018-11-04T01:50:03.043Z,63.48
2018-11-04T01:50:37.424Z,63.60
2018-11-04T01:51:12.060Z,63.39
2018-11-04T01:51:46.433Z,63.48
2018-11-04T01:52:20.768Z,63.58
2018-11-04T01:52:55.067Z,63.49
2018-11-04T01:53:29.468Z,63.33
2018-11-04T01:54:03.867Z,63.79
2018-11-04T01:54:38.400Z,63.11
2018-11-04T01:55:13.399Z,63.31
2018-11-04T01:55:47.813Z,63.19
2018-11-04T01:56:22.148Z,63.37
2018-11-04T01:56:56.452Z,63.19
2018-11-04T01:57:30.937Z,63.56
2018-11-04T01:58:06.169Z,63.66
2018-11-04T01:58:40.549Z,63.00
2018-11-04T01:59:14.922Z,63.39
2018-11-04T01:59:49.305Z,63.36
2018-11-04T02:00:23.680Z,62.85
2018-11-04T02:00:58.011Z,62.92
2018-11-04T02:01:32.326Z,62.83
2018-11-04T02:02:06.706Z,63.16
2018-11-04T02:02:41.605Z,63.24
2018-11-04T02:03:16.005Z,62.69
2018-11-04T02:03:50.684Z,62.85
2018-11-04T02:04:25.029Z,62.41
2018-11-04T02:04:59.368Z,62.45
2018-11-04T02:05:33.720Z,62.83
2018-11-04T02:06:08.070Z,62.58
2018-11-04T02:06:42.503Z,62.60
2018-11-04T02:07:16.976Z,63.00
2018-11-04T02:07:51.304Z,63.37
2018-11-04T02:08:25.616Z,63.06
2018-11-04T02:08:59.963Z,62.75
2018-11-04T02:09:34.310Z,62.47
2018-11-04T02:10:10.933Z,62.40
2018-11-04T02:10:45.365Z,62.54
2018-11-04T02:11:19.721Z,62.77
2018-11-04T02:11:54.059Z,62.90
2018-11-04T02:12:28.612Z,62.92
2018-11-04T02:13:02.976Z,62.81
2018-11-04T02:13:37.384Z,63.03
2018-11-04T02:14:11.798Z,63.23
2018-11-04T02:14:46.236Z,62.79
2018-11-04T02:15:20.597Z,62.94
2018-11-04T02:15:54.908Z,63.31
2018-11-04T02:16:29.259Z,62.98
2018-11-04T02:17:03.629Z,63.00
2018-11-04T02:17:38.223Z,62.97
2018-11-04T02:18:12.715Z,63.16
2018-11-04T02:18:47.083Z,63.03
2018-11-04T02:19:21.377Z,62.95
2018-11-04T02:19:55.752Z,62.59
2018-11-04T02:20:30.169Z,62.62
2018-11-04T02:21:04.500Z,62.74
2018-11-04T02:21:38.969Z,63.14
2018-11-04T02:22:13.378Z,63.31
2018-11-04T02:22:47.809Z,63.40
2018-11-04T02:23:22.116Z,63.57
2018-11-04T02:23:56.427Z,63.48
2018-11-04T02:24:31.238Z,63.15
2018-11-04T02:25:06.572Z,63.36
2018-11-04T02:25:40.978Z,63.16
2018-11-04T02:26:15.556Z,63.04
2018-11-04T02:26:50.026Z,62.75
2018-11-04T02:27:24.344Z,63.21
2018-11-04T02:27:58.687Z,63.05
2018-11-04T02:28:33.145Z,62.60
2018-11-04T02:29:07.491Z,62.81
2018-11-04T02:29:42.035Z,63.02
2018-11-04T02:30:17.386Z,62.98
2018-11-04T02:30:51.835Z,63.09
2018-11-04T02:31:26.380Z,63.09
2018-11-04T02:32:00.700Z,63.16
2018-11-04T02:32:35.042Z,63.12
2018-11-04T02:33:09.426Z,63.25
2018-11-04T02:33:43.920Z,63.18
2018-11-04T02:34:18.291Z,62.96
2018-11-04T02:34:52.884Z,62.81
2018-11-04T02:35:27.242Z,62.94
2018-11-04T02:36:01.592Z,63.02
2018-11-04T02:36:35.946Z,62.82
2018-11-04T02:37:10.420Z,62.50
2018-11-04T02:37:45.019Z,62.65
2018-11-04T02:38:19.396Z,63.02
2018-11-04T02:38:53.761Z,63.12
2018-11-04T02:39:28.077Z,62.93
2018-11-04T02:40:02.432Z,63.09
2018-11-04T02:40:37.448Z,63.17
2018-11-04T02:41:11.942Z,63.45
2018-11-04T02:41:46.430Z,63.41
2018-11-04T02:42:20.877Z,63.24
2018-11-04T02:42:55.244Z,63.26
2018-11-04T02:43:29.599Z,63.20
2018-11-04T02:44:03.982Z,63.35
2018-11-04T02:44:38.380Z,63.37
2018-11-04T02:45:13.020Z,63.45
2018-11-04T02:45:47.445Z,63.18
2018-11-04T02:46:21.785Z,62.73
2018-11-04T02:46:56.162Z,62.86
2018-11-04T02:47:30.685Z,63.18
2018-11-04T02:48:05.181Z,63.29
2018-11-04T02:48:39.600Z,63.27
2018-11-04T02:49:14.051Z,63.07
2018-11-04T02:49:48.387Z,62.92
2018-11-04T02:50:22.738Z,62.80
2018-11-04T02:50:57.125Z,63.04
2018-11-04T02:51:32.083Z,62.86
2018-11-04T02:52:06.585Z,63.17
2018-11-04T02:52:41.285Z,62.94
2018-11-04T02:53:15.744Z,62.64
2018-11-04T02:53:50.062Z,62.43
2018-11-04T02:54:24.370Z,62.37
2018-11-04T02:54:58.720Z,63.08
2018-11-04T02:55:33.234Z,63.25
2018-11-04T02:56:07.994Z,63.38
2018-11-04T02:56:42.484Z,62.56
2018-11-04T02:57:16.945Z,62.89
2018-11-04T02:57:51.413Z,63.40
2018-11-04T02:58:25.779Z,63.53
2018-11-04T02:59:00.178Z,63.57
2018-11-04T02:59:34.536Z,63.61
2018-11-04T03:00:11.276Z,63.71
2018-11-04T03:00:45.669Z,63.42
2018-11-04T03:01:19.989Z,63.30
2018-11-04T03:01:54.381Z,62.60
2018-11-04T03:02:28.873Z,63.51
2018-11-04T03:03:03.285Z,63.62
2018-11-04T03:03:37.721Z,63.58
2018-11-04T03:04:12.236Z,63.80
2018-11-04T03:04:46.660Z,63.77
2018-11-04T03:05:21.004Z,63.72
2018-11-04T03:05:55.364Z,63.96
2018-11-04T03:06:29.706Z,64.20
2018-11-04T03:07:04.158Z,63.81
2018-11-04T03:07:38.754Z,63.47
2018-11-04T03:08:13.109Z,63.62
2018-11-04T03:08:47.576Z,63.23
2018-11-04T03:09:22.053Z,63.09
2018-11-04T03:09:56.391Z,62.84
2018-11-04T03:10:30.761Z,63.10
2018-11-04T03:11:05.507Z,63.41
2018-11-04T03:11:40.118Z,63.42
2018-11-04T03:12:14.478Z,63.58
2018-11-04T03:12:49.000Z,63.53
2018-11-04T03:13:23.391Z,63.73
2018-11-04T03:13:57.789Z,64.05
2018-11-04T03:14:32.672Z,63.77
2018-11-04T03:15:07.656Z,63.86
2018-11-04T03:15:42.191Z,63.92
2018-11-04T03:16:16.568Z,63.82
2018-11-04T03:16:51.002Z,63.78
2018-11-04T03:17:25.705Z,63.86
2018-11-04T03:18:00.099Z,63.81
2018-11-04T03:18:34.464Z,64.26
2018-11-04T03:19:09.191Z,63.78
2018-11-04T03:19:43.668Z,63.79
2018-11-04T03:20:18.065Z,63.66
2018-11-04T03:20:52.549Z,64.01
2018-11-04T03:21:27.048Z,63.62
2018-11-04T03:22:01.469Z,63.74
2018-11-04T03:22:35.897Z,63.85
2018-11-04T03:23:10.559Z,63.78
2018-11-04T03:23:45.032Z,63.70
2018-11-04T03:24:19.404Z,64.01
2018-11-04T03:24:53.807Z,64.05
2018-11-04T03:25:28.148Z,64.00
2018-11-04T03:26:03.130Z,63.80
2018-11-04T03:26:37.599Z,63.51
2018-11-04T03:27:12.042Z,63.79
2018-11-04T03:27:46.608Z,63.78
2018-11-04T03:28:21.381Z,63.67
2018-11-04T03:28:55.940Z,63.31
2018-11-04T03:29:30.320Z,63.35
2018-11-04T03:30:05.274Z,63.44
2018-11-04T03:30:40.107Z,63.65
2018-11-04T03:31:14.501Z,63.77
2018-11-04T03:31:49.019Z,63.88
2018-11-04T03:32:23.351Z,63.55
2018-11-04T03:32:57.699Z,63.61
2018-11-04T03:33:32.034Z,63.69
2018-11-04T03:34:06.396Z,64.23
2018-11-04T03:34:41.001Z,64.55
2018-11-04T03:35:15.401Z,64.20
2018-11-04T03:35:49.784Z,64.23
2018-11-04T03:36:24.200Z,64.04
2018-11-04T03:36:58.540Z,64.17
2018-11-04T03:37:32.987Z,64.19
2018-11-04T03:38:07.973Z,64.02
2018-11-04T03:38:42.435Z,63.85
2018-11-04T03:39:17.400Z,63.84
2018-11-04T03:39:51.775Z,63.86
2018-11-04T03:40:26.117Z,64.11
2018-11-04T03:41:00.483Z,63.98
2018-11-04T03:41:34.814Z,63.65
2018-11-04T03:42:09.619Z,63.30
2018-11-04T03:42:44.729Z,63.99
2018-11-04T03:43:25.481Z,63.87
2018-11-04T03:43:59.840Z,63.63
2018-11-04T03:44:34.224Z,63.87
2018-11-04T03:45:09.369Z,64.08
2018-11-04T03:45:43.895Z,64.01
2018-11-04T03:46:18.278Z,63.94
2018-11-04T03:46:52.668Z,63.88
2018-11-04T03:47:27.371Z,64.41
2018-11-04T03:48:02.147Z,64.04
2018-11-04T03:48:36.652Z,64.15
2018-11-04T03:49:11.036Z,64.19
2018-11-04T03:49:45.459Z,64.31
2018-11-04T03:50:19.819Z,63.89
2018-11-04T03:50:54.217Z,64.01
2018-11-04T03:51:28.794Z,63.64
2018-11-04T03:52:03.415Z,63.85
2018-11-04T03:52:37.949Z,63.54
2018-11-04T03:53:12.626Z,63.29
2018-11-04T03:53:47.365Z,62.72
2018-11-04T03:54:21.715Z,62.78
2018-11-04T03:54:56.056Z,62.84
2018-11-04T03:55:30.405Z,63.03
2018-11-04T03:56:05.453Z,62.64
2018-11-04T03:56:40.050Z,62.97
2018-11-04T03:57:14.521Z,63.31
2018-11-04T03:57:49.069Z,63.31
2018-11-04T03:58:23.419Z,63.46
2018-11-04T03:58:57.929Z,63.63
2018-11-04T03:59:32.283Z,63.93
2018-11-04T04:00:09.915Z,64.08
2018-11-04T04:00:44.464Z,63.93
2018-11-04T04:01:18.853Z,64.50
2018-11-04T04:01:53.309Z,63.79
2018-11-04T04:02:27.659Z,63.72
2018-11-04T04:03:02.052Z,64.04
2018-11-04T04:03:36.414Z,64.11
2018-11-04T04:04:10.891Z,64.23
2018-11-04T04:04:45.327Z,64.17
2018-11-04T04:05:19.694Z,64.16
2018-11-04T04:05:54.126Z,64.14
2018-11-04T04:06:28.466Z,64.48
2018-11-04T04:07:03.111Z,64.56
2018-11-04T04:07:37.568Z,64.28
2018-11-04T04:08:11.992Z,64.50
2018-11-04T04:08:46.417Z,64.29
2018-11-04T04:09:20.764Z,64.00
2018-11-04T04:09:55.140Z,63.93
2018-11-04T04:10:29.497Z,64.29
2018-11-04T04:11:03.904Z,64.26
2018-11-04T04:11:38.355Z,63.71
2018-11-04T04:12:12.824Z,63.75
2018-11-04T04:12:47.544Z,63.49
2018-11-04T04:13:22.044Z,63.22
2018-11-04T04:13:56.420Z,63.77
2018-11-04T04:14:30.757Z,63.84
2018-11-04T04:15:06.288Z,64.34
2018-11-04T04:15:40.673Z,64.48
2018-11-04T04:16:15.163Z,64.53
2018-11-04T04:16:49.494Z,64.55
2018-11-04T04:17:23.852Z,64.94
2018-11-04T04:17:58.249Z,64.75
2018-11-04T04:18:32.756Z,64.39
2018-11-04T04:19:07.197Z,64.28
2018-11-04T04:19:41.713Z,64.23
2018-11-04T04:20:16.119Z,64.32
2018-11-04T04:20:54.653Z,64.69
2018-11-04T04:21:29.053Z,64.67
2018-11-04T04:22:03.849Z,64.36
2018-11-04T04:22:38.253Z,64.40
2018-11-04T04:23:12.670Z,63.78
2018-11-04T04:23:47.072Z,64.12
2018-11-04T04:24:21.431Z,64.40
2018-11-04T04:24:55.773Z,64.49
2018-11-04T04:25:30.124Z,64.70
2018-11-04T04:26:04.529Z,64.82
2018-11-04T04:26:38.908Z,64.90
2018-11-04T04:27:13.780Z,64.87
2018-11-04T04:27:48.200Z,64.49
2018-11-04T04:28:22.745Z,64.40
2018-11-04T04:28:57.092Z,64.38
2018-11-04T04:29:31.438Z,64.56
2018-11-04T04:30:08.287Z,64.67
2018-11-04T04:30:42.648Z,64.85
2018-11-04T04:31:17.085Z,64.66
2018-11-04T04:31:51.464Z,64.67
2018-11-04T04:32:25.836Z,64.64
2018-11-04T04:33:00.139Z,64.40
2018-11-04T04:33:34.500Z,64.13
2018-11-04T04:34:08.908Z,64.38
2018-11-04T04:34:43.272Z,64.27
2018-11-04T04:35:17.900Z,64.49
2018-11-04T04:35:52.277Z,64.24
2018-11-04T04:36:26.630Z,64.39
2018-11-04T04:37:00.984Z,64.53
2018-11-04T04:37:35.338Z,64.66
2018-11-04T04:38:10.124Z,64.72
2018-11-04T04:38:44.676Z,64.89
2018-11-04T04:39:19.144Z,64.73
2018-11-04T04:39:53.530Z,64.84
2018-11-04T04:40:27.875Z,64.49
2018-11-04T04:41:02.248Z,64.88
2018-11-04T04:41:36.694Z,65.29
2018-11-04T04:42:11.091Z,65.22
2018-11-04T04:42:45.467Z,65.11
2018-11-04T04:43:19.803Z,64.98
2018-11-04T04:43:54.145Z,64.34
2018-11-04T04:44:28.478Z,64.56
2018-11-04T04:45:02.817Z,64.39
2018-11-04T04:45:37.215Z,64.65
2018-11-04T04:46:11.704Z,65.13
2018-11-04T04:46:46.067Z,65.39
2018-11-04T04:47:20.423Z,65.03
2018-11-04T04:47:54.917Z,65.01
2018-11-04T04:48:29.266Z,65.44
2018-11-04T04:49:03.619Z,65.35
2018-11-04T04:49:38.048Z,65.50
2018-11-04T04:50:12.619Z,65.57
2018-11-04T04:50:47.224Z,65.66
2018-11-04T04:51:21.388Z,65.29
2018-11-04T04:51:55.774Z,65.02
2018-11-04T04:52:30.128Z,65.27
2018-11-04T04:53:05.570Z,64.92
2018-11-04T04:53:40.084Z,65.09
2018-11-04T04:54:14.524Z,65.08
2018-11-04T04:54:48.875Z,64.69
2018-11-04T04:55:23.240Z,65.06
2018-11-04T04:55:58.105Z,65.27
2018-11-04T04:56:32.480Z,65.42
2018-11-04T04:57:06.872Z,65.45
2018-11-04T04:57:41.375Z,65.33
2018-11-04T04:58:15.771Z,64.97
2018-11-04T04:58:50.146Z,65.37
2018-11-04T04:59:24.636Z,65.30
2018-11-04T04:59:59.076Z,65.31
2018-11-04T05:00:33.606Z,65.41
2018-11-04T05:01:08.024Z,65.82
2018-11-04T05:01:42.530Z,65.94
2018-11-04T05:02:16.884Z,64.77
2018-11-04T05:02:51.245Z,64.13
2018-11-04T05:03:25.571Z,64.82
2018-11-04T05:03:59.931Z,65.05
2018-11-04T05:04:34.281Z,65.41
2018-11-04T05:05:08.662Z,65.09
2018-11-04T05:05:43.052Z,65.26
2018-11-04T05:06:17.399Z,65.12
2018-11-04T05:06:51.775Z,65.11
2018-11-04T05:07:26.112Z,64.97
2018-11-04T05:08:00.449Z,64.98
2018-11-04T05:08:34.771Z,65.18
2018-11-04T05:09:09.369Z,65.15
2018-11-04T05:09:43.614Z,64.90
2018-11-04T05:10:17.975Z,64.93
2018-11-04T05:10:52.345Z,65.29
2018-11-04T05:11:26.695Z,65.30
2018-11-04T05:12:01.084Z,65.41
2018-11-04T05:12:35.420Z,65.02
2018-11-04T05:13:10.177Z,65.14
2018-11-04T05:13:44.624Z,65.28
2018-11-04T05:14:19.034Z,65.31
2018-11-04T05:14:53.516Z,65.21
2018-11-04T05:15:27.842Z,64.95
2018-11-04T05:16:02.180Z,65.13
2018-11-04T05:16:36.795Z,65.01
2018-11-04T05:17:11.341Z,64.93
2018-11-04T05:17:45.775Z,64.85
2018-11-04T05:18:20.118Z,65.21
2018-11-04T05:18:54.440Z,64.93
2018-11-04T05:19:28.909Z,64.87
2018-11-04T05:20:03.299Z,64.75
2018-11-04T05:20:37.742Z,64.84
2018-11-04T05:21:12.160Z,64.94
2018-11-04T05:21:46.843Z,65.07
2018-11-04T05:22:21.163Z,65.02
2018-11-04T05:22:55.529Z,65.23
2018-11-04T05:23:29.863Z,65.33
2018-11-04T05:24:04.683Z,65.64
2018-11-04T05:24:39.089Z,65.46
2018-11-04T05:25:13.627Z,65.07
2018-11-04T05:25:47.973Z,65.11
2018-11-04T05:26:22.371Z,65.06
2018-11-04T05:26:56.713Z,65.25
2018-11-04T05:27:31.068Z,65.18
2018-11-04T05:28:05.863Z,65.65
2018-11-04T05:28:40.256Z,65.83
2018-11-04T05:29:14.624Z,65.76
2018-11-04T05:29:49.155Z,65.50
2018-11-04T05:30:23.536Z,65.09
2018-11-04T05:30:57.934Z,65.06
2018-11-04T05:31:32.244Z,65.28
2018-11-04T05:32:06.948Z,65.44
2018-11-04T05:32:41.297Z,65.61
2018-11-04T05:33:15.675Z,65.75
2018-11-04T05:33:50.016Z,65.73
2018-11-04T05:34:24.919Z,65.72
2018-11-04T05:34:59.231Z,65.92
2018-11-04T05:35:33.572Z,65.78
2018-11-04T05:36:07.971Z,65.72
2018-11-04T05:36:42.396Z,65.60
2018-11-04T05:37:16.858Z,66.09
2018-11-04T05:37:51.187Z,66.10
2018-11-04T05:38:25.636Z,66.07
2018-11-04T05:39:00.747Z,65.66
2018-11-04T05:39:35.679Z,65.51
2018-11-04T05:40:11.043Z,65.27
2018-11-04T05:40:45.552Z,65.15
2018-11-04T05:41:19.888Z,65.43
2018-11-04T05:41:54.816Z,65.55
2018-11-04T05:42:29.145Z,65.67
2018-11-04T05:43:03.576Z,65.74
2018-11-04T05:43:38.127Z,65.83
2018-11-04T05:44:12.844Z,65.61
2018-11-04T05:44:47.286Z,65.88
2018-11-04T05:45:21.646Z,65.73
2018-11-04T05:45:55.976Z,65.83
2018-11-04T05:46:30.282Z,66.03
2018-11-04T05:47:04.652Z,65.93
2018-11-04T05:47:39.224Z,66.12
2018-11-04T05:48:13.692Z,65.76
2018-11-04T05:48:48.592Z,65.69
2018-11-04T05:49:22.996Z,65.49
2018-11-04T05:49:57.880Z,65.85
2018-11-04T05:50:32.323Z,65.67
2018-11-04T05:51:06.727Z,65.51
2018-11-04T05:51:41.213Z,66.08
2018-11-04T05:52:15.749Z,66.05
2018-11-04T05:52:50.104Z,66.26
2018-11-04T05:53:24.425Z,66.70
2018-11-04T05:53:58.735Z,66.62
2018-11-04T05:54:33.254Z,66.69
2018-11-04T05:55:09.008Z,66.94
2018-11-04T05:55:43.401Z,66.87
2018-11-04T05:56:17.767Z,66.89
2018-11-04T05:56:52.128Z,66.56
2018-11-04T05:57:26.494Z,66.76
2018-11-04T05:58:00.826Z,66.92
2018-11-04T05:58:35.152Z,66.68
2018-11-04T05:59:09.605Z,66.55
2018-11-04T05:59:44.049Z,66.54
2018-11-04T06:00:18.428Z,66.35
2018-11-04T06:00:52.951Z,66.43
2018-11-04T06:01:27.376Z,66.45
2018-11-04T06:02:01.735Z,66.66
2018-11-04T06:02:36.094Z,66.50
2018-11-04T06:03:10.531Z,66.99
2018-11-04T06:03:44.996Z,67.03
2018-11-04T06:04:19.311Z,67.10
2018-11-04T06:04:53.665Z,67.16
2018-11-04T06:05:27.987Z,67.20
2018-11-04T06:06:02.366Z,66.87
2018-11-04T06:06:36.726Z,66.94
2018-11-04T06:07:11.208Z,66.66
2018-11-04T06:07:45.556Z,66.53
2018-11-04T06:08:19.900Z,66.48
2018-11-04T06:08:54.243Z,66.37
2018-11-04T06:09:28.572Z,65.91
2018-11-04T06:10:03.109Z,66.14
2018-11-04T06:10:37.469Z,66.18
2018-11-04T06:11:11.849Z,66.31
2018-11-04T06:11:46.792Z,65.87
2018-11-04T06:12:21.161Z,66.75
2018-11-04T06:12:55.500Z,66.98
2018-11-04T06:13:30.211Z,66.85
2018-11-04T06:14:04.587Z,66.66
2018-11-04T06:14:39.030Z,67.00
2018-11-04T06:15:13.412Z,66.96
2018-11-04T06:15:47.803Z,67.12
2018-11-04T06:16:22.328Z,67.10
2018-11-04T06:16:56.706Z,66.66
2018-11-04T06:17:31.090Z,66.56
2018-11-04T06:18:05.866Z,66.43
2018-11-04T06:18:40.678Z,66.48
2018-11-04T06:19:15.316Z,66.59
2018-11-04T06:19:50.008Z,66.78
2018-11-04T06:20:24.530Z,66.90
2018-11-04T06:20:59.193Z,66.82
2018-11-04T06:21:33.543Z,66.62
2018-11-04T06:22:07.932Z,66.30
2018-11-04T06:22:43.554Z,66.10
2018-11-04T06:23:17.958Z,66.55
2018-11-04T06:23:52.457Z,66.86
2018-11-04T06:24:27.385Z,66.92
2018-11-04T06:25:01.831Z,67.24
2018-11-04T06:25:36.202Z,67.25
2018-11-04T06:26:10.887Z,67.06
2018-11-04T06:26:45.282Z,66.66
2018-11-04T06:27:20.450Z,67.24
2018-11-04T06:27:55.391Z,66.89
2018-11-04T06:28:29.972Z,66.86
2018-11-04T06:29:04.788Z,67.14
2018-11-04T06:29:39.297Z,67.06
2018-11-04T06:30:14.180Z,66.83
2018-11-04T06:30:48.531Z,66.66
2018-11-04T06:31:22.922Z,66.73
2018-11-04T06:31:57.246Z,66.02
2018-11-04T06:32:31.603Z,66.74
2018-11-04T06:33:06.132Z,66.74
2018-11-04T06:33:41.812Z,67.42
2018-11-04T06:34:16.415Z,66.84
2018-11-04T06:34:50.842Z,66.49
2018-11-04T06:35:25.228Z,66.69
2018-11-04T06:35:59.604Z,66.36
2018-11-04T06:36:34.016Z,67.11
2018-11-04T06:37:08.670Z,67.06
2018-11-04T06:37:43.348Z,66.62
2018-11-04T06:38:17.737Z,66.35
2018-11-04T06:38:52.122Z,66.64
2018-11-04T06:39:26.473Z,67.33
2018-11-04T06:40:00.841Z,67.33
2018-11-04T06:40:35.169Z,67.49
2018-11-04T06:41:09.711Z,67.33
2018-11-04T06:41:44.335Z,66.93
2018-11-04T06:42:19.084Z,66.55
2018-11-04T06:42:53.408Z,66.68
2018-11-04T06:43:27.750Z,66.84
2018-11-04T06:44:02.077Z,67.21
2018-11-04T06:44:36.460Z,67.04
2018-11-04T06:45:11.276Z,67.28
2018-11-04T06:45:45.683Z,66.97
2018-11-04T06:46:20.251Z,67.12
2018-11-04T06:46:54.757Z,66.95
2018-11-04T06:47:29.314Z,66.68
2018-11-04T06:48:03.852Z,67.16
2018-11-04T06:48:38.268Z,67.32
2018-11-04T06:49:12.630Z,67.18
2018-11-04T06:49:47.075Z,66.98
2018-11-04T06:50:22.127Z,66.93
2018-11-04T06:50:56.448Z,67.00
2018-11-04T06:51:30.779Z,67.07
2018-11-04T06:52:05.827Z,66.94
2018-11-04T06:52:40.261Z,66.65
2018-11-04T06:53:14.703Z,66.95
2018-11-04T06:53:49.082Z,67.48
2018-11-04T06:54:24.013Z,66.81
2018-11-04T06:54:58.370Z,66.99
2018-11-04T06:55:32.711Z,66.64
2018-11-04T06:57:10.078Z,66.46
2018-11-04T06:57:44.596Z,66.47
2018-11-04T06:58:19.144Z,67.01
2018-11-04T06:58:53.448Z,67.42
2018-11-04T06:59:34.234Z,66.94
2018-11-04T07:00:10.375Z,66.76
2018-11-04T07:00:44.830Z,66.96
2018-11-04T07:01:19.262Z,66.65
2018-11-04T07:01:53.600Z,66.89
2018-11-04T07:02:28.014Z,67.22
2018-11-04T07:03:02.358Z,67.46
2018-11-04T07:03:36.828Z,67.24
2018-11-04T07:04:22.493Z,67.32
2018-11-04T07:04:56.863Z,67.33
2018-11-04T07:05:31.349Z,67.37
2018-11-04T07:06:05.743Z,67.52
2018-11-04T07:06:40.380Z,67.80
2018-11-04T07:07:14.937Z,67.95
2018-11-04T07:07:49.320Z,67.25
2018-11-04T07:08:23.673Z,66.85
2018-11-04T07:08:58.119Z,66.93
2018-11-04T07:09:32.632Z,66.59
2018-11-04T07:10:08.944Z,66.39
2018-11-04T07:10:43.310Z,66.15
2018-11-04T07:11:17.751Z,66.36
2018-11-04T07:11:52.120Z,66.05
2018-11-04T07:12:26.652Z,66.44
2018-11-04T07:13:01.043Z,66.83
2018-11-04T07:13:35.521Z,67.07
2018-11-04T07:14:09.964Z,67.00
2018-11-04T07:14:44.692Z,67.09
2018-11-04T07:15:25.380Z,67.16
2018-11-04T07:15:59.726Z,66.49
2018-11-04T07:16:34.064Z,66.98
2018-11-04T07:17:08.460Z,67.03
2018-11-04T07:17:42.909Z,67.10
2018-11-04T07:18:17.452Z,67.05
2018-11-04T07:18:51.799Z,66.85
2018-11-04T07:19:26.135Z,67.08
2018-11-04T07:20:00.511Z,66.76
2018-11-04T07:20:35.057Z,66.62
2018-11-04T07:21:09.460Z,67.17
2018-11-04T07:21:44.281Z,67.61
2018-11-04T07:22:18.642Z,67.29
2018-11-04T07:22:53.239Z,67.31
2018-11-04T07:23:27.620Z,67.43
2018-11-04T07:24:02.201Z,67.14
2018-11-04T07:24:36.545Z,66.77
2018-11-04T07:25:10.971Z,66.76
2018-11-04T07:25:45.444Z,66.61
2018-11-04T07:26:19.875Z,66.68